• Join FlightAware (Why Join?)
  • Login
  • US Flag 
01:06AM EST


 

Airport Tracker/Info


-or-


 

Live Flight TrackerFlight Track Log ✈ EJA221P ✈ 02-May-2014 ✈ KIAD - KTEB

Flight Track Log - Related Links

Times and Time Zones

All times are in EDT time to prevent confusion due to time zone crossing. See the EJA221P flight status page for this flight to view local times or setup timezone preferences in your user account.

Time Position Orientation Groundspeed Altitude Reporting Facility
EDT Latitude Longitude Course Direction KTS MPH feet Rate Location/Type
05:36PM 38.9500 -77.5000 322° Northwest 181 208 2,000  Level Potomac TRACON
05:37PM 39.0000 -77.5500 322° Northwest 243 280 5,000 3,000 Climbing Potomac TRACON
05:38PM 39.0667 -77.5333 11° North 294 338 8,000 2,087 Climbing Potomac TRACON
05:39PM 39.1167 -77.4833 38° Northeast 315 362 9,000 496 Climbing Potomac TRACON
05:40PM 39.1833 -77.3667 54° Northeast 309 356 9,000  Level Potomac TRACON
05:41PM 39.2167 -77.2833 63° Northeast 310 357 9,000 700 Level Potomac TRACON
05:42PM 39.2667 -77.1833 57° Northeast 316 364 10,400 1,750 Climbing Potomac TRACON
05:43PM 39.3167 -77.0833 57° Northeast 372 428 12,500 2,250 Climbing Potomac TRACON
05:43PM 39.3261 -77.0083 81° East 378 435 14,000 2,100 Climbing Washington Center
05:44PM 39.2986 -76.8600 103° East 390 449 16,000 1,008 Climbing Washington Center
05:45PM 39.2606 -76.7014 107° East 418 481 16,000 295 Level Washington Center
05:46PM 39.2181 -76.5344 108° East 459 528 16,600 504 Climbing Washington Center
05:47PM 39.1800 -76.3467 105° East 478 550 17,000 203 Climbing Washington Center
05:48PM 39.2081 -76.1675 79° East 484 557 17,000  Level Washington Center
05:49PM 39.3294 -76.0450 38° Northeast 470 541 17,000  Level Washington Center
05:50PM 39.4422 -75.9328 38° Northeast 486 559 17,000 -549 Level Washington Center
05:52PM 39.6667 -75.7167 37° Northeast 517 595 15,400 -1,345 Descending Philadelphia TRACON
05:53PM 39.7833 -75.6167 33° Northeast 468 539 13,100 -1,200 Descending Philadelphia TRACON
05:54PM 39.8833 -75.5167 37° Northeast 464 534 13,000 -50 Descending Philadelphia TRACON
05:55PM 39.9833 -75.4167 37° Northeast 465 535 13,000  Level Philadelphia TRACON
05:56PM 40.0833 -75.3333 33° Northeast 394 453 13,000  Level Philadelphia TRACON
05:57PM 40.1667 -75.2667 31° Northeast 324 373 13,000 -800 Level Philadelphia TRACON
05:58PM 40.2333 -75.1833 44° Northeast 325 374 11,400 -1,705 Descending Philadelphia TRACON
06:00PM 40.3833 -75.0333 37° Northeast 295 339 7,600 -1,674 Descending New York TRACON
06:01PM 40.4333 -74.9500 52° Northeast 287 330 6,100 -1,500 Descending New York TRACON
06:02PM 40.4833 -74.8833 45° Northeast 283 326 4,600 -1,000 Descending New York TRACON
06:03PM 40.5333 -74.8000 52° Northeast 277 319 4,100 -250 Descending New York TRACON
06:04PM 40.5833 -74.7333 45° Northeast 283 326 4,100 -400 Level New York TRACON
06:05PM 40.6500 -74.6833 30° Northeast 273 314 3,300 -500 Descending New York TRACON
06:06PM 40.7167 -74.6167 37° Northeast 275 316 3,100 -100 Descending New York TRACON
06:07PM 40.7667 -74.5333 52° Northeast 285 328 3,100  Level New York TRACON
06:08PM 40.8000 -74.4500 62° Northeast 280 322 3,100  Level New York TRACON
06:09PM 40.8500 -74.3667 52° Northeast 279 321 3,100  Level New York TRACON
06:10PM 40.9000 -74.2833 52° Northeast 269 310 3,100 -100 Level New York TRACON
06:11PM 40.9333 -74.2000 62° Northeast 262 302 2,900 -500 Descending New York TRACON
06:12PM 40.9333 -74.1167 90° East 228 262 2,100 -667 Descending New York TRACON
06:13PM 40.9167 -74.0500 108° East 198 228 1,500 -571 Descending New York TRACON
06:14PM 40.8833 -74.0167 143° Southeast 158 182 900 -600 Descending New York TRACON
06:15PM 40.8667 -74.0500 237° Southwest 117 135 300 -600 Descending New York TRACON
06:17PM 40.8500 -74.0500 106° East  Level FlightAware Approximate